sensor_id;sensor_type;location;lat;lon;timestamp;pressure;altitude;pressure_sealevel;temperature;humidity
61039;BME280;46919;45.816;3.104;2023-05-02T00:01:57;98217.66;;;11.40;81.37
61039;BME280;46919;45.816;3.104;2023-05-02T00:04:22;98216.00;;;11.39;80.33
61039;BME280;46919;45.816;3.104;2023-05-02T00:06:50;98220.81;;;11.37;80.08
61039;BME280;46919;45.816;3.104;2023-05-02T00:09:16;98221.31;;;11.28;80.14
61039;BME280;46919;45.816;3.104;2023-05-02T00:11:42;98215.34;;;11.19;80.30
61039;BME280;46919;45.816;3.104;2023-05-02T00:14:07;98223.66;;;11.17;80.40
61039;BME280;46919;45.816;3.104;2023-05-02T00:16:33;98220.81;;;11.12;80.24
61039;BME280;46919;45.816;3.104;2023-05-02T00:18:58;98218.59;;;11.02;80.19
61039;BME280;46919;45.816;3.104;2023-05-02T00:21:23;98225.03;;;11.01;80.25
61039;BME280;46919;45.816;3.104;2023-05-02T00:23:50;98220.50;;;10.95;80.40
61039;BME280;46919;45.816;3.104;2023-05-02T00:26:15;98221.53;;;10.94;80.37
61039;BME280;46919;45.816;3.104;2023-05-02T00:28:41;98219.91;;;10.93;80.31
61039;BME280;46919;45.816;3.104;2023-05-02T00:31:06;98212.66;;;10.87;79.91
61039;BME280;46919;45.816;3.104;2023-05-02T00:33:32;98211.44;;;10.83;80.27
61039;BME280;46919;45.816;3.104;2023-05-02T00:35:57;98210.44;;;10.77;80.00
61039;BME280;46919;45.816;3.104;2023-05-02T00:38:23;98212.94;;;10.79;80.24
61039;BME280;46919;45.816;3.104;2023-05-02T00:40:49;98206.94;;;10.70;80.29
61039;BME280;46919;45.816;3.104;2023-05-02T00:43:16;98208.00;;;10.69;80.12
61039;BME280;46919;45.816;3.104;2023-05-02T00:45:43;98205.53;;;10.67;80.12
61039;BME280;46919;45.816;3.104;2023-05-02T00:48:09;98207.00;;;10.63;80.64
61039;BME280;46919;45.816;3.104;2023-05-02T00:50:40;98211.59;;;10.63;80.97
61039;BME280;46919;45.816;3.104;2023-05-02T00:53:07;98204.13;;;10.58;80.80
61039;BME280;46919;45.816;3.104;2023-05-02T00:55:33;98207.50;;;10.47;81.61
61039;BME280;46919;45.816;3.104;2023-05-02T00:58:00;98204.19;;;10.45;81.51
61039;BME280;46919;45.816;3.104;2023-05-02T01:00:40;98196.72;;;10.40;81.60
61039;BME280;46919;45.816;3.104;2023-05-02T01:03:14;98199.25;;;10.28;83.03
61039;BME280;46919;45.816;3.104;2023-05-02T01:08:49;98205.50;;;10.22;82.85
61039;BME280;46919;45.816;3.104;2023-05-02T01:11:30;98198.44;;;10.21;82.79
61039;BME280;46919;45.816;3.104;2023-05-02T01:14:00;98196.16;;;10.18;83.41
61039;BME280;46919;45.816;3.104;2023-05-02T01:16:29;98206.78;;;10.13;83.64
61039;BME280;46919;45.816;3.104;2023-05-02T01:18:58;98200.16;;;10.15;83.69
61039;BME280;46919;45.816;3.104;2023-05-02T01:21:24;98198.91;;;10.11;83.71
61039;BME280;46919;45.816;3.104;2023-05-02T01:24:06;98195.38;;;10.11;83.83
61039;BME280;46919;45.816;3.104;2023-05-02T01:29:07;98198.94;;;10.05;84.38
61039;BME280;46919;45.816;3.104;2023-05-02T01:31:38;98195.63;;;10.03;84.38
61039;BME280;46919;45.816;3.104;2023-05-02T01:34:08;98199.78;;;9.98;84.79
61039;BME280;46919;45.816;3.104;2023-05-02T01:36:34;98187.78;;;9.94;85.13
61039;BME280;46919;45.816;3.104;2023-05-02T01:39:01;98196.09;;;9.93;85.27
61039;BME280;46919;45.816;3.104;2023-05-02T01:41:30;98192.53;;;9.92;85.19
61039;BME280;46919;45.816;3.104;2023-05-02T01:43:57;98191.50;;;9.93;85.73
61039;BME280;46919;45.816;3.104;2023-05-02T01:46:30;98190.91;;;9.91;85.79
61039;BME280;46919;45.816;3.104;2023-05-02T01:48:58;98185.06;;;9.88;85.81
61039;BME280;46919;45.816;3.104;2023-05-02T01:51:32;98188.19;;;9.85;86.68
61039;BME280;46919;45.816;3.104;2023-05-02T01:54:00;98197.16;;;9.78;86.87
61039;BME280;46919;45.816;3.104;2023-05-02T01:56:28;98192.00;;;9.77;86.94
61039;BME280;46919;45.816;3.104;2023-05-02T01:58:56;98205.47;;;9.77;87.01
61039;BME280;46919;45.816;3.104;2023-05-02T02:01:23;98198.81;;;9.79;86.81
61039;BME280;46919;45.816;3.104;2023-05-02T02:03:53;98197.78;;;9.81;87.17
61039;BME280;46919;45.816;3.104;2023-05-02T02:06:21;98211.25;;;9.87;86.70
61039;BME280;46919;45.816;3.104;2023-05-02T02:08:47;98209.81;;;9.91;86.92
61039;BME280;46919;45.816;3.104;2023-05-02T02:11:16;98212.88;;;10.02;86.94
61039;BME280;46919;45.816;3.104;2023-05-02T02:13:48;98215.09;;;10.11;86.28
61039;BME280;46919;45.816;3.104;2023-05-02T02:16:23;98213.03;;;10.13;86.60
61039;BME280;46919;45.816;3.104;2023-05-02T02:18:53;98218.44;;;10.13;86.30
61039;BME280;46919;45.816;3.104;2023-05-02T02:21:22;98227.97;;;10.16;86.28
61039;BME280;46919;45.816;3.104;2023-05-02T02:23:50;98222.53;;;10.23;86.14
61039;BME280;46919;45.816;3.104;2023-05-02T02:26:19;98221.09;;;10.27;85.94
61039;BME280;46919;45.816;3.104;2023-05-02T02:28:45;98228.78;;;10.23;86.46
61039;BME280;46919;45.816;3.104;2023-05-02T02:31:10;98232.28;;;10.30;86.38
61039;BME280;46919;45.816;3.104;2023-05-02T02:33:36;98235.19;;;10.36;86.68
61039;BME280;46919;45.816;3.104;2023-05-02T02:36:17;98234.53;;;10.40;86.31
61039;BME280;46919;45.816;3.104;2023-05-02T02:38:46;98234.75;;;10.39;87.39
61039;BME280;46919;45.816;3.104;2023-05-02T02:41:32;98239.72;;;10.42;86.76
61039;BME280;46919;45.816;3.104;2023-05-02T02:44:09;98238.28;;;10.46;86.34
61039;BME280;46919;45.816;3.104;2023-05-02T02:47:08;98235.75;;;10.51;86.64
61039;BME280;46919;45.816;3.104;2023-05-02T02:49:46;98239.47;;;10.57;86.89
61039;BME280;46919;45.816;3.104;2023-05-02T02:52:55;98249.22;;;10.58;87.55
61039;BME280;46919;45.816;3.104;2023-05-02T03:00:54;98236.94;;;10.62;87.77
61039;BME280;46919;45.816;3.104;2023-05-02T03:03:21;98242.72;;;10.65;87.57
61039;BME280;46919;45.816;3.104;2023-05-02T03:05:54;98240.66;;;10.67;86.86
61039;BME280;46919;45.816;3.104;2023-05-02T03:08:21;98242.53;;;10.67;87.32
61039;BME280;46919;45.816;3.104;2023-05-02T03:10:46;98246.88;;;10.68;88.10
61039;BME280;46919;45.816;3.104;2023-05-02T03:13:12;98241.91;;;10.65;88.39
61039;BME280;46919;45.816;3.104;2023-05-02T03:18:18;98254.59;;;10.64;87.99
61039;BME280;46919;45.816;3.104;2023-05-02T03:20:43;98257.31;;;10.64;88.56
61039;BME280;46919;45.816;3.104;2023-05-02T03:23:09;98254.59;;;10.64;88.35
61039;BME280;46919;45.816;3.104;2023-05-02T03:25:34;98256.50;;;10.57;89.32
61039;BME280;46919;45.816;3.104;2023-05-02T03:28:00;98253.00;;;10.57;89.15
61039;BME280;46919;45.816;3.104;2023-05-02T03:30:26;98260.25;;;10.56;88.86
61039;BME280;46919;45.816;3.104;2023-05-02T03:32:51;98254.22;;;10.54;89.09
61039;BME280;46919;45.816;3.104;2023-05-02T03:35:17;98261.91;;;10.57;89.74
61039;BME280;46919;45.816;3.104;2023-05-02T03:37:43;98252.78;;;10.58;89.32
61039;BME280;46919;45.816;3.104;2023-05-02T03:40:09;98254.22;;;10.54;89.83
61039;BME280;46919;45.816;3.104;2023-05-02T03:42:35;98255.72;;;10.50;89.88
61039;BME280;46919;45.816;3.104;2023-05-02T03:45:06;98249.91;;;10.46;89.71
61039;BME280;46919;45.816;3.104;2023-05-02T03:47:33;98257.44;;;10.38;90.17
61039;BME280;46919;45.816;3.104;2023-05-02T03:49:58;98257.25;;;10.32;90.11
61039;BME280;46919;45.816;3.104;2023-05-02T03:52:24;98253.91;;;10.24;90.54
61039;BME280;46919;45.816;3.104;2023-05-02T03:54:50;98258.50;;;10.16;91.01
61039;BME280;46919;45.816;3.104;2023-05-02T03:57:16;98256.47;;;10.12;91.58
61039;BME280;46919;45.816;3.104;2023-05-02T03:59:41;98258.34;;;10.05;91.87
61039;BME280;46919;45.816;3.104;2023-05-02T04:02:10;98250.28;;;9.91;92.98
61039;BME280;46919;45.816;3.104;2023-05-02T04:04:36;98253.41;;;9.88;92.76
61039;BME280;46919;45.816;3.104;2023-05-02T04:07:03;98262.97;;;9.84;93.12
61039;BME280;46919;45.816;3.104;2023-05-02T04:09:29;98266.28;;;9.79;92.81
61039;BME280;46919;45.816;3.104;2023-05-02T04:11:55;98265.06;;;9.82;93.01
61039;BME280;46919;45.816;3.104;2023-05-02T04:14:20;98264.41;;;9.80;92.77
61039;BME280;46919;45.816;3.104;2023-05-02T04:16:49;98265.25;;;9.81;93.54
61039;BME280;46919;45.816;3.104;2023-05-02T04:19:15;98270.66;;;9.81;93.32
61039;BME280;46919;45.816;3.104;2023-05-02T04:21:42;98267.94;;;9.87;93.22
61039;BME280;46919;45.816;3.104;2023-05-02T04:24:08;98266.91;;;9.88;93.24
61039;BME280;46919;45.816;3.104;2023-05-02T04:26:33;98280.41;;;9.95;93.35
61039;BME280;46919;45.816;3.104;2023-05-02T04:28:59;98274.97;;;10.02;92.81
61039;BME280;46919;45.816;3.104;2023-05-02T04:31:24;98279.09;;;10.11;93.15
61039;BME280;46919;45.816;3.104;2023-05-02T04:33:50;98277.00;;;10.13;93.21
61039;BME280;46919;45.816;3.104;2023-05-02T04:36:16;98279.09;;;10.18;93.10
61039;BME280;46919;45.816;3.104;2023-05-02T04:38:41;98277.19;;;10.25;92.62
61039;BME280;46919;45.816;3.104;2023-05-02T04:41:07;98277.81;;;10.27;92.84
61039;BME280;46919;45.816;3.104;2023-05-02T04:43:32;98284.47;;;10.24;93.15
61039;BME280;46919;45.816;3.104;2023-05-02T04:45:58;98290.50;;;10.26;93.08
61039;BME280;46919;45.816;3.104;2023-05-02T04:48:23;98288.00;;;10.18;93.74
61039;BME280;46919;45.816;3.104;2023-05-02T04:50:51;98292.19;;;10.14;94.48
61039;BME280;46919;45.816;3.104;2023-05-02T04:53:18;98298.44;;;10.08;94.36
61039;BME280;46919;45.816;3.104;2023-05-02T04:55:44;98303.25;;;9.92;95.10
61039;BME280;46919;45.816;3.104;2023-05-02T04:58:12;98303.25;;;9.92;96.17
61039;BME280;46919;45.816;3.104;2023-05-02T05:00:37;98303.03;;;9.94;96.10
61039;BME280;46919;45.816;3.104;2023-05-02T05:03:03;98307.00;;;9.91;96.74
61039;BME280;46919;45.816;3.104;2023-05-02T05:05:30;98308.63;;;9.92;96.44
61039;BME280;46919;45.816;3.104;2023-05-02T05:07:56;98311.97;;;9.94;96.41
61039;BME280;46919;45.816;3.104;2023-05-02T05:10:21;98318.59;;;9.98;96.19
61039;BME280;46919;45.816;3.104;2023-05-02T05:12:46;98324.63;;;9.87;96.88
61039;BME280;46919;45.816;3.104;2023-05-02T05:15:13;98320.69;;;9.83;97.82
61039;BME280;46919;45.816;3.104;2023-05-02T05:17:39;98332.31;;;9.90;97.22
61039;BME280;46919;45.816;3.104;2023-05-02T05:20:05;98333.34;;;9.89;97.33
61039;BME280;46919;45.816;3.104;2023-05-02T05:22:30;98327.13;;;9.89;97.80
61039;BME280;46919;45.816;3.104;2023-05-02T05:24:56;98328.78;;;9.83;98.07
61039;BME280;46919;45.816;3.104;2023-05-02T05:27:21;98339.59;;;9.76;98.04
61039;BME280;46919;45.816;3.104;2023-05-02T05:29:47;98335.66;;;9.72;98.40
61039;BME280;46919;45.816;3.104;2023-05-02T05:32:12;98338.56;;;9.71;98.51
61039;BME280;46919;45.816;3.104;2023-05-02T05:34:38;98348.31;;;9.72;99.06
61039;BME280;46919;45.816;3.104;2023-05-02T05:37:03;98343.13;;;9.70;98.84
61039;BME280;46919;45.816;3.104;2023-05-02T05:39:29;98340.00;;;9.73;99.36
61039;BME280;46919;45.816;3.104;2023-05-02T05:41:54;98343.13;;;9.84;99.09
61039;BME280;46919;45.816;3.104;2023-05-02T05:44:21;98347.91;;;9.88;99.04
61039;BME280;46919;45.816;3.104;2023-05-02T05:46:47;98352.88;;;10.05;98.63
61039;BME280;46919;45.816;3.104;2023-05-02T05:49:14;98348.88;;;10.27;97.32
61039;BME280;46919;45.816;3.104;2023-05-02T05:51:40;98342.63;;;10.40;97.28
61039;BME280;46919;45.816;3.104;2023-05-02T05:54:05;98345.50;;;10.52;97.09
61039;BME280;46919;45.816;3.104;2023-05-02T05:56:31;98349.66;;;10.55;96.64
61039;BME280;46919;45.816;3.104;2023-05-02T05:58:57;98350.31;;;10.50;96.61
61039;BME280;46919;45.816;3.104;2023-05-02T06:01:22;98354.19;;;10.67;96.70
61039;BME280;46919;45.816;3.104;2023-05-02T06:03:48;98354.31;;;10.86;95.42
61039;BME280;46919;45.816;3.104;2023-05-02T06:06:13;98361.00;;;10.83;96.01
61039;BME280;46919;45.816;3.104;2023-05-02T06:08:38;98360.69;;;10.98;95.49
61039;BME280;46919;45.816;3.104;2023-05-02T06:11:08;98354.78;;;11.15;95.17
61039;BME280;46919;45.816;3.104;2023-05-02T06:13:37;98358.28;;;11.22;94.43
61039;BME280;46919;45.816;3.104;2023-05-02T06:16:02;98370.94;;;11.28;94.34
61039;BME280;46919;45.816;3.104;2023-05-02T06:18:28;98363.16;;;11.38;93.98
61039;BME280;46919;45.816;3.104;2023-05-02T06:20:53;98364.34;;;11.49;93.48
61039;BME280;46919;45.816;3.104;2023-05-02T06:23:19;98376.09;;;11.36;93.48
61039;BME280;46919;45.816;3.104;2023-05-02T06:25:44;98378.41;;;11.33;93.93
61039;BME280;46919;45.816;3.104;2023-05-02T06:28:09;98377.41;;;11.27;93.68
61039;BME280;46919;45.816;3.104;2023-05-02T06:30:35;98379.13;;;11.15;93.74
61039;BME280;46919;45.816;3.104;2023-05-02T06:33:03;98377.66;;;11.19;93.68
61039;BME280;46919;45.816;3.104;2023-05-02T06:35:28;98387.06;;;11.10;94.20
61039;BME280;46919;45.816;3.104;2023-05-02T06:37:54;98392.75;;;10.95;94.39
61039;BME280;46919;45.816;3.104;2023-05-02T06:40:19;98390.56;;;10.72;95.75
61039;BME280;46919;45.816;3.104;2023-05-02T06:42:45;98391.19;;;10.67;96.16
61039;BME280;46919;45.816;3.104;2023-05-02T06:45:10;98387.22;;;10.76;95.77
61039;BME280;46919;45.816;3.104;2023-05-02T06:47:35;98391.97;;;10.81;95.60
61039;BME280;46919;45.816;3.104;2023-05-02T06:50:01;98387.81;;;10.85;95.42
61039;BME280;46919;45.816;3.104;2023-05-02T06:52:27;98394.66;;;10.87;95.26
61039;BME280;46919;45.816;3.104;2023-05-02T06:54:52;98398.38;;;10.93;95.70
61039;BME280;46919;45.816;3.104;2023-05-02T06:57:18;98401.13;;;10.80;96.55
61039;BME280;46919;45.816;3.104;2023-05-02T06:59:43;98397.81;;;10.78;96.37
61039;BME280;46919;45.816;3.104;2023-05-02T07:02:08;98399.50;;;10.79;96.37
61039;BME280;46919;45.816;3.104;2023-05-02T07:04:34;98404.69;;;10.80;96.37
61039;BME280;46919;45.816;3.104;2023-05-02T07:07:00;98399.66;;;10.84;95.69
61039;BME280;46919;45.816;3.104;2023-05-02T07:09:25;98404.78;;;10.99;95.83
61039;BME280;46919;45.816;3.104;2023-05-02T07:11:50;98401.41;;;11.10;94.86
61039;BME280;46919;45.816;3.104;2023-05-02T07:14:16;98402.25;;;11.11;95.05
61039;BME280;46919;45.816;3.104;2023-05-02T07:16:41;98403.53;;;11.01;95.67
61039;BME280;46919;45.816;3.104;2023-05-02T07:19:07;98403.03;;;11.24;95.18
61039;BME280;46919;45.816;3.104;2023-05-02T07:21:32;98396.72;;;11.37;94.26
61039;BME280;46919;45.816;3.104;2023-05-02T07:23:57;98393.69;;;11.52;94.10
61039;BME280;46919;45.816;3.104;2023-05-02T07:26:23;98391.88;;;11.71;92.81
61039;BME280;46919;45.816;3.104;2023-05-02T07:28:49;98390.69;;;11.92;92.14
61039;BME280;46919;45.816;3.104;2023-05-02T07:31:14;98385.84;;;12.01;91.02
61039;BME280;46919;45.816;3.104;2023-05-02T07:33:40;98392.97;;;11.95;91.39
61039;BME280;46919;45.816;3.104;2023-05-02T07:36:05;98385.34;;;12.11;91.18
61039;BME280;46919;45.816;3.104;2023-05-02T07:38:31;98390.75;;;12.11;91.27
61039;BME280;46919;45.816;3.104;2023-05-02T07:40:57;98378.97;;;12.24;90.24
61039;BME280;46919;45.816;3.104;2023-05-02T07:43:23;98378.78;;;12.44;89.46
61039;BME280;46919;45.816;3.104;2023-05-02T07:45:48;98376.66;;;12.64;88.10
61039;BME280;46919;45.816;3.104;2023-05-02T07:48:14;98380.56;;;12.68;86.90
61039;BME280;46919;45.816;3.104;2023-05-02T07:50:39;98371.16;;;12.71;87.12
61039;BME280;46919;45.816;3.104;2023-05-02T07:53:04;98371.28;;;12.95;86.17
61039;BME280;46919;45.816;3.104;2023-05-02T07:55:30;98375.00;;;13.31;84.66
61039;BME280;46919;45.816;3.104;2023-05-02T07:57:57;98375.50;;;13.39;83.08
61039;BME280;46919;45.816;3.104;2023-05-02T08:00:22;98371.78;;;13.52;83.87
61039;BME280;46919;45.816;3.104;2023-05-02T08:02:48;98373.44;;;13.65;83.23
61039;BME280;46919;45.816;3.104;2023-05-02T08:05:13;98374.38;;;13.47;82.96
61039;BME280;46919;45.816;3.104;2023-05-02T08:07:39;98369.56;;;13.31;82.90
61039;BME280;46919;45.816;3.104;2023-05-02T08:10:05;98368.19;;;13.40;82.24
61039;BME280;46919;45.816;3.104;2023-05-02T08:12:31;98360.66;;;13.12;82.02
61039;BME280;46919;45.816;3.104;2023-05-02T08:14:56;98361.34;;;13.07;82.33
61039;BME280;46919;45.816;3.104;2023-05-02T08:17:22;98368.34;;;13.15;81.79
61039;BME280;46919;45.816;3.104;2023-05-02T08:19:47;98359.59;;;13.43;80.98
61039;BME280;46919;45.816;3.104;2023-05-02T08:22:12;98365.78;;;13.62;80.04
61039;BME280;46919;45.816;3.104;2023-05-02T08:24:38;98366.28;;;13.71;80.09
61039;BME280;46919;45.816;3.104;2023-05-02T08:27:03;98375.13;;;13.66;80.96
61039;BME280;46919;45.816;3.104;2023-05-02T08:29:29;98382.69;;;13.64;80.65
61039;BME280;46919;45.816;3.104;2023-05-02T08:31:55;98374.13;;;13.49;80.41
61039;BME280;46919;45.816;3.104;2023-05-02T08:34:21;98374.38;;;13.47;79.75
61039;BME280;46919;45.816;3.104;2023-05-02T08:36:46;98377.78;;;13.54;79.27
61039;BME280;46919;45.816;3.104;2023-05-02T08:39:12;98384.72;;;13.69;78.48
61039;BME280;46919;45.816;3.104;2023-05-02T08:41:37;98383.28;;;13.78;78.32
61039;BME280;46919;45.816;3.104;2023-05-02T08:44:05;98380.59;;;14.02;77.02
61039;BME280;46919;45.816;3.104;2023-05-02T08:46:34;98375.28;;;13.83;77.11
61039;BME280;46919;45.816;3.104;2023-05-02T08:49:01;98379.03;;;13.82;76.51
61039;BME280;46919;45.816;3.104;2023-05-02T08:51:27;98381.69;;;14.01;76.17
61039;BME280;46919;45.816;3.104;2023-05-02T08:53:54;98374.94;;;14.39;75.46
61039;BME280;46919;45.816;3.104;2023-05-02T08:56:20;98377.53;;;14.45;75.32
61039;BME280;46919;45.816;3.104;2023-05-02T08:58:46;98381.69;;;14.48;74.91
61039;BME280;46919;45.816;3.104;2023-05-02T09:01:18;98380.25;;;14.34;74.08
61039;BME280;46919;45.816;3.104;2023-05-02T09:03:46;98395.63;;;14.40;75.00
61039;BME280;46919;45.816;3.104;2023-05-02T09:08:41;98392.91;;;14.40;73.79
61039;BME280;46919;45.816;3.104;2023-05-02T09:11:11;98392.41;;;14.43;73.38
61039;BME280;46919;45.816;3.104;2023-05-02T09:13:42;98391.47;;;14.49;72.46
61039;BME280;46919;45.816;3.104;2023-05-02T09:18:40;98383.16;;;14.91;71.03
61039;BME280;46919;45.816;3.104;2023-05-02T09:21:07;98386.56;;;15.27;70.29
61039;BME280;46919;45.816;3.104;2023-05-02T09:23:35;98389.50;;;15.37;69.33
61039;BME280;46919;45.816;3.104;2023-05-02T09:26:00;98384.34;;;15.24;69.37
61039;BME280;46919;45.816;3.104;2023-05-02T09:28:49;98387.59;;;15.09;67.35
61039;BME280;46919;45.816;3.104;2023-05-02T09:31:20;98385.94;;;15.08;67.99
61039;BME280;46919;45.816;3.104;2023-05-02T09:33:46;98382.69;;;14.94;68.66
61039;BME280;46919;45.816;3.104;2023-05-02T09:36:14;98389.94;;;14.77;69.07
61039;BME280;46919;45.816;3.104;2023-05-02T09:38:44;98387.09;;;14.72;68.59
61039;BME280;46919;45.816;3.104;2023-05-02T09:41:09;98383.13;;;14.62;67.87
61039;BME280;46919;45.816;3.104;2023-05-02T09:43:36;98383.31;;;14.73;67.68
61039;BME280;46919;45.816;3.104;2023-05-02T09:46:06;98384.47;;;14.89;67.28
61039;BME280;46919;45.816;3.104;2023-05-02T09:48:50;98389.03;;;15.00;65.72
61039;BME280;46919;45.816;3.104;2023-05-02T09:51:16;98396.41;;;15.28;64.54
61039;BME280;46919;45.816;3.104;2023-05-02T09:53:43;98384.03;;;15.66;63.38
61039;BME280;46919;45.816;3.104;2023-05-02T09:56:09;98380.72;;;15.64;63.25
61039;BME280;46919;45.816;3.104;2023-05-02T09:58:35;98385.81;;;15.44;62.71
61039;BME280;46919;45.816;3.104;2023-05-02T10:01:00;98388.72;;;15.54;62.94
61039;BME280;46919;45.816;3.104;2023-05-02T10:03:27;98394.16;;;15.54;62.04
61039;BME280;46919;45.816;3.104;2023-05-02T10:05:54;98392.31;;;15.43;61.42
61039;BME280;46919;45.816;3.104;2023-05-02T10:08:20;98395.78;;;15.38;62.02
61039;BME280;46919;45.816;3.104;2023-05-02T10:10:52;98396.31;;;15.52;61.16
61039;BME280;46919;45.816;3.104;2023-05-02T10:13:20;98383.06;;;16.06;60.35
61039;BME280;46919;45.816;3.104;2023-05-02T10:16:02;98382.34;;;16.11;57.98
61039;BME280;46919;45.816;3.104;2023-05-02T10:18:40;98374.88;;;16.40;58.81
61039;BME280;46919;45.816;3.104;2023-05-02T10:21:10;98379.91;;;16.32;58.83
61039;BME280;46919;45.816;3.104;2023-05-02T10:23:40;98381.47;;;16.44;58.35
61039;BME280;46919;45.816;3.104;2023-05-02T10:26:08;98378.28;;;16.70;57.16
61039;BME280;46919;45.816;3.104;2023-05-02T10:28:35;98386.22;;;16.71;56.21
61039;BME280;46919;45.816;3.104;2023-05-02T10:31:01;98390.75;;;16.43;57.57
61039;BME280;46919;45.816;3.104;2023-05-02T10:33:27;98386.28;;;16.54;57.53
61039;BME280;46919;45.816;3.104;2023-05-02T10:35:54;98392.56;;;16.38;57.18
61039;BME280;46919;45.816;3.104;2023-05-02T10:38:20;98379.34;;;16.29;57.07
61039;BME280;46919;45.816;3.104;2023-05-02T10:40:52;98384.81;;;16.29;57.49
61039;BME280;46919;45.816;3.104;2023-05-02T10:43:34;98381.03;;;16.14;56.69
61039;BME280;46919;45.816;3.104;2023-05-02T10:46:02;98379.22;;;16.02;57.15
61039;BME280;46919;45.816;3.104;2023-05-02T10:48:28;98376.84;;;16.45;56.28
61039;BME280;46919;45.816;3.104;2023-05-02T10:51:00;98367.16;;;16.76;55.20
61039;BME280;46919;45.816;3.104;2023-05-02T10:53:27;98364.78;;;16.80;54.81
61039;BME280;46919;45.816;3.104;2023-05-02T10:58:42;98364.84;;;16.46;56.42
61039;BME280;46919;45.816;3.104;2023-05-02T11:04:09;98342.16;;;16.84;53.87
61039;BME280;46919;45.816;3.104;2023-05-02T11:11:52;98340.50;;;17.28;53.83
61039;BME280;46919;45.816;3.104;2023-05-02T11:19:22;98341.84;;;16.81;54.63
61039;BME280;46919;45.816;3.104;2023-05-02T11:21:47;98349.78;;;16.82;55.11
61039;BME280;46919;45.816;3.104;2023-05-02T11:24:41;98340.38;;;17.17;54.04
61039;BME280;46919;45.816;3.104;2023-05-02T11:30:03;98321.50;;;17.70;53.28
61039;BME280;46919;45.816;3.104;2023-05-02T11:35:22;98331.72;;;17.53;52.09
61039;BME280;46919;45.816;3.104;2023-05-02T11:37:55;98329.66;;;17.98;51.84
61039;BME280;46919;45.816;3.104;2023-05-02T11:40:21;98320.53;;;18.24;51.85
61039;BME280;46919;45.816;3.104;2023-05-02T11:42:47;98321.69;;;18.34;51.81
61039;BME280;46919;45.816;3.104;2023-05-02T11:45:13;98323.28;;;18.82;50.58
61039;BME280;46919;45.816;3.104;2023-05-02T11:47:40;98315.75;;;19.15;50.39
61039;BME280;46919;45.816;3.104;2023-05-02T11:50:06;98311.97;;;19.32;49.35
61039;BME280;46919;45.816;3.104;2023-05-02T11:52:41;98325.72;;;18.74;49.77
61039;BME280;46919;45.816;3.104;2023-05-02T11:55:10;98322.84;;;18.43;49.87
61039;BME280;46919;45.816;3.104;2023-05-02T11:57:36;98339.66;;;18.19;50.54
61039;BME280;46919;45.816;3.104;2023-05-02T12:00:02;98322.06;;;17.78;50.04
61039;BME280;46919;45.816;3.104;2023-05-02T12:05:04;98315.16;;;19.03;49.54
61039;BME280;46919;45.816;3.104;2023-05-02T12:07:45;98312.75;;;19.32;48.28
61039;BME280;46919;45.816;3.104;2023-05-02T12:10:12;98313.56;;;19.28;48.22
61039;BME280;46919;45.816;3.104;2023-05-02T12:12:40;98298.81;;;19.54;47.59
61039;BME280;46919;45.816;3.104;2023-05-02T12:15:07;98311.88;;;19.01;47.77
61039;BME280;46919;45.816;3.104;2023-05-02T12:17:56;98308.09;;;19.28;47.19
61039;BME280;46919;45.816;3.104;2023-05-02T12:20:21;98311.44;;;19.76;47.46
61039;BME280;46919;45.816;3.104;2023-05-02T12:22:47;98306.25;;;19.85;46.96
61039;BME280;46919;45.816;3.104;2023-05-02T12:25:12;98302.69;;;19.89;47.20
61039;BME280;46919;45.816;3.104;2023-05-02T12:27:38;98310.03;;;20.20;46.93
61039;BME280;46919;45.816;3.104;2023-05-02T12:30:04;98312.81;;;20.15;47.08
61039;BME280;46919;45.816;3.104;2023-05-02T12:32:32;98310.00;;;20.40;46.68
61039;BME280;46919;45.816;3.104;2023-05-02T12:34:59;98302.88;;;20.29;46.39
61039;BME280;46919;45.816;3.104;2023-05-02T12:37:26;98303.47;;;20.11;46.16
61039;BME280;46919;45.816;3.104;2023-05-02T12:39:53;98307.53;;;20.39;46.08
61039;BME280;46919;45.816;3.104;2023-05-02T12:42:21;98306.66;;;20.54;44.69
61039;BME280;46919;45.816;3.104;2023-05-02T12:44:47;98302.13;;;20.89;44.70
61039;BME280;46919;45.816;3.104;2023-05-02T12:47:14;98289.13;;;21.10;43.75
61039;BME280;46919;45.816;3.104;2023-05-02T12:52:19;98313.13;;;20.89;43.94
61039;BME280;46919;45.816;3.104;2023-05-02T12:54:45;98310.28;;;21.09;43.81
61039;BME280;46919;45.816;3.104;2023-05-02T12:57:21;98307.03;;;21.02;42.70
61039;BME280;46919;45.816;3.104;2023-05-02T12:59:47;98310.88;;;21.01;42.82
61039;BME280;46919;45.816;3.104;2023-05-02T13:02:12;98304.25;;;21.07;42.89
61039;BME280;46919;45.816;3.104;2023-05-02T13:04:39;98305.41;;;20.96;42.92
61039;BME280;46919;45.816;3.104;2023-05-02T13:07:05;98308.81;;;20.57;43.68
61039;BME280;46919;45.816;3.104;2023-05-02T13:09:31;98307.56;;;20.29;44.37
61039;BME280;46919;45.816;3.104;2023-05-02T13:11:56;98303.09;;;20.48;43.60
61039;BME280;46919;45.816;3.104;2023-05-02T13:14:24;98294.31;;;21.16;43.48
61039;BME280;46919;45.816;3.104;2023-05-02T13:16:49;98297.56;;;21.24;42.74
61039;BME280;46919;45.816;3.104;2023-05-02T13:19:18;98289.94;;;21.10;41.87
61039;BME280;46919;45.816;3.104;2023-05-02T13:21:43;98306.53;;;21.34;42.41
61039;BME280;46919;45.816;3.104;2023-05-02T13:24:09;98296.28;;;21.56;41.79
61039;BME280;46919;45.816;3.104;2023-05-02T13:26:34;98280.75;;;21.70;41.39
61039;BME280;46919;45.816;3.104;2023-05-02T13:29:00;98278.84;;;22.00;41.11
61039;BME280;46919;45.816;3.104;2023-05-02T13:31:25;98273.66;;;21.93;41.32
61039;BME280;46919;45.816;3.104;2023-05-02T13:33:51;98273.94;;;21.23;41.84
61039;BME280;46919;45.816;3.104;2023-05-02T13:36:16;98275.38;;;21.55;41.60
61039;BME280;46919;45.816;3.104;2023-05-02T13:38:42;98274.94;;;22.01;40.73
61039;BME280;46919;45.816;3.104;2023-05-02T13:41:07;98271.53;;;22.14;40.59
61039;BME280;46919;45.816;3.104;2023-05-02T13:43:32;98272.41;;;22.10;40.47
61039;BME280;46919;45.816;3.104;2023-05-02T13:45:58;98275.28;;;21.65;41.36
61039;BME280;46919;45.816;3.104;2023-05-02T13:48:24;98271.09;;;22.31;41.09
61039;BME280;46919;45.816;3.104;2023-05-02T13:50:49;98265.47;;;22.66;40.03